Achtung, Daten sind nicht aktuell!
Die Daten der Wetterstation sind älter als 54 Minuten!

 

Letzte 24h
Datum & Zeit Temp. Luft-
feuchte
Wind Nieder-
schlag
Luftdruck Tendenz
IN OUT IN OUT Richtung Min. Max.
2020.01.17 00:57 2.3 °C -1.8 °C 68% 90% NW 323 ° 4 km/h 10 km/h 0.0 mm 1029.20 hPa langsam fallend
01:57 2.2 °C -1.2 °C 67% 92% NNO 16 ° 2 km/h 9 km/h 0.0 mm 1028.50 hPa fallend
02:57 2.0 °C -0.6 °C 67% 91% NO 41 ° 1 km/h 7 km/h 0.0 mm 1027.80 hPa fallend
03:57 2.0 °C 0.1 °C 68% 90% O 96 ° 6 km/h 17 km/h 0.0 mm 1027.50 hPa fallend
04:57 2.0 °C -0.3 °C 68% 89% ONO 68 ° 6 km/h 15 km/h 0.0 mm 1026.70 hPa fallend
05:57 2.1 °C -0.6 °C 68% 89% NNO 29 ° 4 km/h 10 km/h 0.0 mm 1026.70 hPa langsam fallend
06:57 2.0 °C -0.9 °C 69% 88% NO 41 ° 9 km/h 16 km/h 0.0 mm 1026.30 hPa langsam fallend
07:57 2.0 °C -1.3 °C 69% 90% N 4 ° 6 km/h 11 km/h 0.0 mm 1026.00 hPa langsam fallend
08:57 2.0 °C -1.5 °C 68% 91% N 9 ° 3 km/h 7 km/h 0.0 mm 1025.60 hPa langsam fallend
09:57 2.0 °C -0.7 °C 68% 89% OSO 103 ° 8 km/h 16 km/h 0.0 mm 1025.30 hPa langsam fallend
10:57 2.2 °C -0.3 °C 69% 86% O 97 ° 13 km/h 27 km/h 0.0 mm 1024.60 hPa langsam fallend
11:57 2.5 °C -1.2 °C 69% 87% O 98 ° 15 km/h 28 km/h 0.0 mm 1024.30 hPa langsam fallend
12:57 2.6 °C -0.5 °C 69% 87% OSO 109 ° 13 km/h 26 km/h 0.0 mm 1024.20 hPa langsam fallend
13:57 2.8 °C 0.1 °C 70% 85% OSO 113 ° 11 km/h 22 km/h 0.0 mm 1023.70 hPa langsam fallend
14:57 3.0 °C 0.2 °C 74% 85% O 100 ° 12 km/h 22 km/h 0.0 mm 1023.50 hPa langsam fallend
15:57 3.0 °C 0.1 °C 74% 85% OSO 115 ° 12 km/h 23 km/h 0.0 mm 1023.30 hPa langsam fallend
16:57 3.0 °C 0.0 °C 74% 85% O 94 ° 12 km/h 21 km/h 0.0 mm 1023.60 hPa langsam fallend
17:57 2.9 °C 0.0 °C 70% 85% O 100 ° 10 km/h 23 km/h 0.0 mm 1023.60 hPa langsam steigend
18:57 2.9 °C -0.1 °C 69% 86% OSO 110 ° 8 km/h 16 km/h 0.0 mm 1023.80 hPa langsam steigend
19:57 2.8 °C -0.2 °C 69% 86% OSO 106 ° 9 km/h 16 km/h 0.0 mm 1024.20 hPa langsam steigend
20:57 2.7 °C -0.3 °C 69% 86% OSO 109 ° 7 km/h 15 km/h 0.0 mm 1023.80 hPa langsam steigend
21:57 2.7 °C -0.2 °C 69% 86% SO 130 ° 7 km/h 15 km/h 0.0 mm 1024.00 hPa langsam steigend
22:57 2.7 °C -0.2 °C 70% 86% O 98 ° 8 km/h 15 km/h 0.0 mm 1023.70 hPa langsam fallend
23:57 2.7 °C -0.3 °C 70% 87% OSO 109 ° 4 km/h 10 km/h 0.0 mm 1023.80 hPa gleichbleibend

 

Verlauf: letzte 24h
WIND   Windrose
(Klicke ins Bild, um den Hintergrund abzuschalten)
WIND   Windverkauf 2.5h
TEMP   Temperatur 2.5h
Druck   Luftdruck 2.5h
Regen   Luftdruck 2.5h